sensor_id;sensor_type;location;lat;lon;timestamp;temperature;humidity
75899;DHT22;64576;50.460;4.866;2023-06-22T00:01:50;19.10;77.59
75899;DHT22;64576;50.460;4.866;2023-06-22T00:04:16;19.00;77.58
75899;DHT22;64576;50.460;4.866;2023-06-22T00:06:41;19.04;78.07
75899;DHT22;64576;50.460;4.866;2023-06-22T00:09:06;18.92;78.27
75899;DHT22;64576;50.460;4.866;2023-06-22T00:11:36;18.94;76.89
75899;DHT22;64576;50.460;4.866;2023-06-22T00:14:01;18.83;77.87
75899;DHT22;64576;50.460;4.866;2023-06-22T00:16:27;18.86;78.54
75899;DHT22;64576;50.460;4.866;2023-06-22T00:18:52;18.80;78.90
75899;DHT22;64576;50.460;4.866;2023-06-22T00:21:17;18.73;79.21
75899;DHT22;64576;50.460;4.866;2023-06-22T00:23:45;18.69;79.34
75899;DHT22;64576;50.460;4.866;2023-06-22T00:26:11;18.66;79.06
75899;DHT22;64576;50.460;4.866;2023-06-22T00:28:36;18.65;78.62
75899;DHT22;64576;50.460;4.866;2023-06-22T00:31:02;18.65;79.02
75899;DHT22;64576;50.460;4.866;2023-06-22T00:33:27;18.62;79.23
75899;DHT22;64576;50.460;4.866;2023-06-22T00:35:53;18.57;79.03
75899;DHT22;64576;50.460;4.866;2023-06-22T00:38:19;18.55;78.89
75899;DHT22;64576;50.460;4.866;2023-06-22T00:40:45;18.48;78.89
75899;DHT22;64576;50.460;4.866;2023-06-22T00:43:10;18.48;78.94
75899;DHT22;64576;50.460;4.866;2023-06-22T00:45:36;18.45;78.83
75899;DHT22;64576;50.460;4.866;2023-06-22T00:48:01;18.39;79.13
75899;DHT22;64576;50.460;4.866;2023-06-22T00:50:30;18.38;79.53
75899;DHT22;64576;50.460;4.866;2023-06-22T00:52:59;18.38;79.10
75899;DHT22;64576;50.460;4.866;2023-06-22T00:55:26;18.28;79.73
75899;DHT22;64576;50.460;4.866;2023-06-22T00:57:52;18.27;79.94
75899;DHT22;64576;50.460;4.866;2023-06-22T01:00:22;18.34;79.43
75899;DHT22;64576;50.460;4.866;2023-06-22T01:02:52;18.29;80.36
75899;DHT22;64576;50.460;4.866;2023-06-22T01:05:21;18.32;80.14
75899;DHT22;64576;50.460;4.866;2023-06-22T01:08:07;18.27;80.39
75899;DHT22;64576;50.460;4.866;2023-06-22T01:16:30;18.46;79.02
75899;DHT22;64576;50.460;4.866;2023-06-22T01:18:59;18.45;79.24
75899;DHT22;64576;50.460;4.866;2023-06-22T01:21:28;18.57;78.68
75899;DHT22;64576;50.460;4.866;2023-06-22T01:29:20;18.52;78.72
75899;DHT22;64576;50.460;4.866;2023-06-22T01:31:47;18.44;78.56
75899;DHT22;64576;50.460;4.866;2023-06-22T01:34:14;18.36;78.99
75899;DHT22;64576;50.460;4.866;2023-06-22T01:36:41;18.34;79.20
75899;DHT22;64576;50.460;4.866;2023-06-22T01:39:08;18.36;79.15
75899;DHT22;64576;50.460;4.866;2023-06-22T01:41:37;18.28;79.27
75899;DHT22;64576;50.460;4.866;2023-06-22T01:44:05;18.27;79.54
75899;DHT22;64576;50.460;4.866;2023-06-22T01:46:34;18.25;79.66
75899;DHT22;64576;50.460;4.866;2023-06-22T01:48:59;18.29;79.25
75899;DHT22;64576;50.460;4.866;2023-06-22T01:51:25;18.55;76.39
75899;DHT22;64576;50.460;4.866;2023-06-22T01:53:51;18.70;76.40
75899;DHT22;64576;50.460;4.866;2023-06-22T01:56:17;18.59;77.03
75899;DHT22;64576;50.460;4.866;2023-06-22T01:58:50;18.65;76.57
75899;DHT22;64576;50.460;4.866;2023-06-22T02:01:20;18.55;76.90
75899;DHT22;64576;50.460;4.866;2023-06-22T02:03:57;18.49;77.16
75899;DHT22;64576;50.460;4.866;2023-06-22T02:06:36;18.41;77.54
75899;DHT22;64576;50.460;4.866;2023-06-22T02:09:07;18.35;77.44
75899;DHT22;64576;50.460;4.866;2023-06-22T02:11:34;18.36;77.39
75899;DHT22;64576;50.460;4.866;2023-06-22T02:14:00;18.38;77.40
75899;DHT22;64576;50.460;4.866;2023-06-22T02:16:26;18.39;77.63
75899;DHT22;64576;50.460;4.866;2023-06-22T02:18:55;18.35;78.28
75899;DHT22;64576;50.460;4.866;2023-06-22T02:21:20;18.38;78.93
75899;DHT22;64576;50.460;4.866;2023-06-22T02:23:46;18.32;78.49
75899;DHT22;64576;50.460;4.866;2023-06-22T02:26:12;18.41;78.47
75899;DHT22;64576;50.460;4.866;2023-06-22T02:28:38;18.42;77.74
75899;DHT22;64576;50.460;4.866;2023-06-22T02:31:03;18.53;78.17
75899;DHT22;64576;50.460;4.866;2023-06-22T02:33:29;18.49;78.19
75899;DHT22;64576;50.460;4.866;2023-06-22T02:35:54;18.41;81.21
75899;DHT22;64576;50.460;4.866;2023-06-22T02:38:19;18.04;87.53
75899;DHT22;64576;50.460;4.866;2023-06-22T02:40:45;17.63;87.13
75899;DHT22;64576;50.460;4.866;2023-06-22T02:43:11;17.39;87.49
75899;DHT22;64576;50.460;4.866;2023-06-22T02:45:36;17.25;84.08
75899;DHT22;64576;50.460;4.866;2023-06-22T02:48:02;17.17;86.46
75899;DHT22;64576;50.460;4.866;2023-06-22T02:50:27;17.03;85.85
75899;DHT22;64576;50.460;4.866;2023-06-22T02:52:53;16.90;86.36
75899;DHT22;64576;50.460;4.866;2023-06-22T02:55:18;16.83;87.47
75899;DHT22;64576;50.460;4.866;2023-06-22T02:57:44;16.87;86.21
75899;DHT22;64576;50.460;4.866;2023-06-22T03:00:12;16.85;87.94
75899;DHT22;64576;50.460;4.866;2023-06-22T03:02:48;16.85;86.85
75899;DHT22;64576;50.460;4.866;2023-06-22T03:05:14;16.97;84.83
75899;DHT22;64576;50.460;4.866;2023-06-22T03:07:40;17.01;86.18
75899;DHT22;64576;50.460;4.866;2023-06-22T03:10:08;17.04;83.98
75899;DHT22;64576;50.460;4.866;2023-06-22T03:12:34;16.97;83.54
75899;DHT22;64576;50.460;4.866;2023-06-22T03:14:59;16.83;84.82
75899;DHT22;64576;50.460;4.866;2023-06-22T03:17:25;16.60;85.65
75899;DHT22;64576;50.460;4.866;2023-06-22T03:19:50;16.46;87.98
75899;DHT22;64576;50.460;4.866;2023-06-22T03:22:15;16.26;87.72
75899;DHT22;64576;50.460;4.866;2023-06-22T03:24:41;16.16;89.15
75899;DHT22;64576;50.460;4.866;2023-06-22T03:27:06;16.35;87.37
75899;DHT22;64576;50.460;4.866;2023-06-22T03:29:32;16.43;87.24
75899;DHT22;64576;50.460;4.866;2023-06-22T03:31:57;16.39;87.30
75899;DHT22;64576;50.460;4.866;2023-06-22T03:34:22;16.35;88.21
75899;DHT22;64576;50.460;4.866;2023-06-22T03:36:48;16.32;89.01
75899;DHT22;64576;50.460;4.866;2023-06-22T03:39:13;16.29;88.74
75899;DHT22;64576;50.460;4.866;2023-06-22T03:41:39;16.23;88.98
75899;DHT22;64576;50.460;4.866;2023-06-22T03:44:04;16.32;89.22
75899;DHT22;64576;50.460;4.866;2023-06-22T03:46:29;16.30;88.52
75899;DHT22;64576;50.460;4.866;2023-06-22T03:48:55;16.39;88.51
75899;DHT22;64576;50.460;4.866;2023-06-22T03:51:20;16.49;88.34
75899;DHT22;64576;50.460;4.866;2023-06-22T03:53:46;16.46;88.13
75899;DHT22;64576;50.460;4.866;2023-06-22T03:56:11;16.41;89.50
75899;DHT22;64576;50.460;4.866;2023-06-22T03:58:37;16.39;88.64
75899;DHT22;64576;50.460;4.866;2023-06-22T04:01:07;16.42;89.28
75899;DHT22;64576;50.460;4.866;2023-06-22T04:03:37;16.53;88.42
75899;DHT22;64576;50.460;4.866;2023-06-22T04:06:02;16.43;89.89
75899;DHT22;64576;50.460;4.866;2023-06-22T04:08:27;16.49;89.14
75899;DHT22;64576;50.460;4.866;2023-06-22T04:10:53;16.61;89.13
75899;DHT22;64576;50.460;4.866;2023-06-22T04:13:18;16.52;89.65
75899;DHT22;64576;50.460;4.866;2023-06-22T04:15:44;16.59;89.32
75899;DHT22;64576;50.460;4.866;2023-06-22T04:18:10;16.64;90.14
75899;DHT22;64576;50.460;4.866;2023-06-22T04:20:35;16.59;90.37
75899;DHT22;64576;50.460;4.866;2023-06-22T04:23:01;16.71;87.73
75899;DHT22;64576;50.460;4.866;2023-06-22T04:25:26;16.84;88.89
75899;DHT22;64576;50.460;4.866;2023-06-22T04:27:52;16.83;88.01
75899;DHT22;64576;50.460;4.866;2023-06-22T04:30:17;16.83;87.39
75899;DHT22;64576;50.460;4.866;2023-06-22T04:32:43;16.87;88.02
75899;DHT22;64576;50.460;4.866;2023-06-22T04:35:10;16.83;88.39
75899;DHT22;64576;50.460;4.866;2023-06-22T04:37:35;16.87;87.51
75899;DHT22;64576;50.460;4.866;2023-06-22T04:40:00;16.84;88.90
75899;DHT22;64576;50.460;4.866;2023-06-22T04:42:26;16.81;89.34
75899;DHT22;64576;50.460;4.866;2023-06-22T04:44:52;16.80;89.23
75899;DHT22;64576;50.460;4.866;2023-06-22T04:47:18;16.84;88.70
75899;DHT22;64576;50.460;4.866;2023-06-22T04:49:43;16.97;88.69
75899;DHT22;64576;50.460;4.866;2023-06-22T04:52:11;17.00;87.90
75899;DHT22;64576;50.460;4.866;2023-06-22T04:54:39;17.07;87.61
75899;DHT22;64576;50.460;4.866;2023-06-22T04:57:07;17.05;88.01
75899;DHT22;64576;50.460;4.866;2023-06-22T04:59:36;17.08;88.23
75899;DHT22;64576;50.460;4.866;2023-06-22T05:02:04;17.15;87.91
75899;DHT22;64576;50.460;4.866;2023-06-22T05:04:31;17.22;88.03
75899;DHT22;64576;50.460;4.866;2023-06-22T05:06:57;17.25;88.09
75899;DHT22;64576;50.460;4.866;2023-06-22T05:09:23;17.31;87.80
75899;DHT22;64576;50.460;4.866;2023-06-22T05:11:50;17.39;86.71
75899;DHT22;64576;50.460;4.866;2023-06-22T05:14:16;17.47;86.69
75899;DHT22;64576;50.460;4.866;2023-06-22T05:16:42;17.53;86.90
75899;DHT22;64576;50.460;4.866;2023-06-22T05:19:08;17.62;87.66
75899;DHT22;64576;50.460;4.866;2023-06-22T05:21:33;17.76;87.42
75899;DHT22;64576;50.460;4.866;2023-06-22T05:23:59;17.83;88.20
75899;DHT22;64576;50.460;4.866;2023-06-22T05:26:29;18.02;88.09
75899;DHT22;64576;50.460;4.866;2023-06-22T05:28:55;18.19;88.06
75899;DHT22;64576;50.460;4.866;2023-06-22T05:31:20;18.27;86.16
75899;DHT22;64576;50.460;4.866;2023-06-22T05:33:46;18.48;86.50
75899;DHT22;64576;50.460;4.866;2023-06-22T05:36:13;18.51;85.62
75899;DHT22;64576;50.460;4.866;2023-06-22T05:38:39;18.52;84.96
75899;DHT22;64576;50.460;4.866;2023-06-22T05:41:05;18.76;86.35
75899;DHT22;64576;50.460;4.866;2023-06-22T05:43:31;18.89;87.19
75899;DHT22;64576;50.460;4.866;2023-06-22T05:45:56;18.87;86.31
75899;DHT22;64576;50.460;4.866;2023-06-22T05:48:22;18.65;82.40
75899;DHT22;64576;50.460;4.866;2023-06-22T05:50:47;18.77;85.33
75899;DHT22;64576;50.460;4.866;2023-06-22T05:53:13;18.76;84.91
75899;DHT22;64576;50.460;4.866;2023-06-22T05:55:38;18.62;85.29
75899;DHT22;64576;50.460;4.866;2023-06-22T05:58:04;18.65;83.22
75899;DHT22;64576;50.460;4.866;2023-06-22T06:00:29;18.76;84.64
75899;DHT22;64576;50.460;4.866;2023-06-22T06:02:55;18.79;85.38
75899;DHT22;64576;50.460;4.866;2023-06-22T06:05:20;18.77;84.98
75899;DHT22;64576;50.460;4.866;2023-06-22T06:07:46;18.74;85.48
75899;DHT22;64576;50.460;4.866;2023-06-22T06:10:12;18.55;84.94
75899;DHT22;64576;50.460;4.866;2023-06-22T06:12:37;18.55;84.80
75899;DHT22;64576;50.460;4.866;2023-06-22T06:15:04;18.49;86.00
75899;DHT22;64576;50.460;4.866;2023-06-22T06:17:29;18.57;85.64
75899;DHT22;64576;50.460;4.866;2023-06-22T06:19:54;18.62;85.30
75899;DHT22;64576;50.460;4.866;2023-06-22T06:22:20;18.60;83.62
75899;DHT22;64576;50.460;4.866;2023-06-22T06:24:47;18.74;83.67
75899;DHT22;64576;50.460;4.866;2023-06-22T06:27:13;18.92;82.72
75899;DHT22;64576;50.460;4.866;2023-06-22T06:29:38;19.08;82.63
75899;DHT22;64576;50.460;4.866;2023-06-22T06:32:04;19.27;83.06
75899;DHT22;64576;50.460;4.866;2023-06-22T06:34:29;19.32;83.94
75899;DHT22;64576;50.460;4.866;2023-06-22T06:36:54;19.49;82.76
75899;DHT22;64576;50.460;4.866;2023-06-22T06:39:20;19.48;81.95
75899;DHT22;64576;50.460;4.866;2023-06-22T06:41:45;19.44;81.79
75899;DHT22;64576;50.460;4.866;2023-06-22T06:44:11;19.41;83.14
75899;DHT22;64576;50.460;4.866;2023-06-22T06:46:36;19.65;81.22
75899;DHT22;64576;50.460;4.866;2023-06-22T06:49:03;19.72;82.80
75899;DHT22;64576;50.460;4.866;2023-06-22T06:51:28;19.35;82.02
75899;DHT22;64576;50.460;4.866;2023-06-22T06:53:53;19.48;82.51
75899;DHT22;64576;50.460;4.866;2023-06-22T06:56:19;19.39;81.73
75899;DHT22;64576;50.460;4.866;2023-06-22T06:58:44;19.52;82.39
75899;DHT22;64576;50.460;4.866;2023-06-22T07:01:11;19.44;81.28
75899;DHT22;64576;50.460;4.866;2023-06-22T07:03:37;19.38;81.61
75899;DHT22;64576;50.460;4.866;2023-06-22T07:06:03;19.69;81.76
75899;DHT22;64576;50.460;4.866;2023-06-22T07:08:29;19.62;82.90
75899;DHT22;64576;50.460;4.866;2023-06-22T07:10:54;20.18;81.82
75899;DHT22;64576;50.460;4.866;2023-06-22T07:13:20;20.21;80.36
75899;DHT22;64576;50.460;4.866;2023-06-22T07:15:45;20.16;80.22
75899;DHT22;64576;50.460;4.866;2023-06-22T07:18:10;20.52;80.29
75899;DHT22;64576;50.460;4.866;2023-06-22T07:20:36;20.67;78.93
75899;DHT22;64576;50.460;4.866;2023-06-22T07:23:01;20.40;79.15
75899;DHT22;64576;50.460;4.866;2023-06-22T07:25:27;20.58;79.38
75899;DHT22;64576;50.460;4.866;2023-06-22T07:28:01;21.23;77.91
75899;DHT22;64576;50.460;4.866;2023-06-22T07:30:28;21.81;77.32
75899;DHT22;64576;50.460;4.866;2023-06-22T07:32:53;21.59;76.11
75899;DHT22;64576;50.460;4.866;2023-06-22T07:35:19;22.32;76.08
75899;DHT22;64576;50.460;4.866;2023-06-22T07:37:44;22.14;74.24
75899;DHT22;64576;50.460;4.866;2023-06-22T07:40:10;21.90;75.75
75899;DHT22;64576;50.460;4.866;2023-06-22T07:42:36;20.92;77.25
75899;DHT22;64576;50.460;4.866;2023-06-22T07:45:03;20.90;78.52
75899;DHT22;64576;50.460;4.866;2023-06-22T07:47:28;21.72;77.07
75899;DHT22;64576;50.460;4.866;2023-06-22T07:49:55;21.83;76.99
75899;DHT22;64576;50.460;4.866;2023-06-22T07:52:22;21.42;76.94
75899;DHT22;64576;50.460;4.866;2023-06-22T07:54:47;21.22;77.06
75899;DHT22;64576;50.460;4.866;2023-06-22T07:57:13;21.00;77.17
75899;DHT22;64576;50.460;4.866;2023-06-22T07:59:38;20.72;77.75
75899;DHT22;64576;50.460;4.866;2023-06-22T08:02:05;21.37;78.92
75899;DHT22;64576;50.460;4.866;2023-06-22T08:04:30;21.38;76.64
75899;DHT22;64576;50.460;4.866;2023-06-22T08:06:59;21.38;77.65
75899;DHT22;64576;50.460;4.866;2023-06-22T08:09:25;21.14;78.08
75899;DHT22;64576;50.460;4.866;2023-06-22T08:11:50;21.23;78.40
75899;DHT22;64576;50.460;4.866;2023-06-22T08:14:16;21.31;77.55
75899;DHT22;64576;50.460;4.866;2023-06-22T08:16:41;21.35;79.15
75899;DHT22;64576;50.460;4.866;2023-06-22T08:19:07;21.35;77.68
75899;DHT22;64576;50.460;4.866;2023-06-22T08:21:32;21.28;78.84
75899;DHT22;64576;50.460;4.866;2023-06-22T08:23:57;20.89;78.41
75899;DHT22;64576;50.460;4.866;2023-06-22T08:26:23;21.13;78.59
75899;DHT22;64576;50.460;4.866;2023-06-22T08:28:48;20.72;79.60
75899;DHT22;64576;50.460;4.866;2023-06-22T08:31:14;20.79;79.48
75899;DHT22;64576;50.460;4.866;2023-06-22T08:33:39;20.83;79.58
75899;DHT22;64576;50.460;4.866;2023-06-22T08:36:05;20.80;80.90
75899;DHT22;64576;50.460;4.866;2023-06-22T08:38:31;20.56;80.35
75899;DHT22;64576;50.460;4.866;2023-06-22T08:40:58;20.34;81.74
75899;DHT22;64576;50.460;4.866;2023-06-22T08:43:23;20.38;82.35
75899;DHT22;64576;50.460;4.866;2023-06-22T08:45:48;20.10;83.25
75899;DHT22;64576;50.460;4.866;2023-06-22T08:48:14;19.87;83.24
75899;DHT22;64576;50.460;4.866;2023-06-22T08:50:39;19.82;83.26
75899;DHT22;64576;50.460;4.866;2023-06-22T08:53:07;19.66;83.52
75899;DHT22;64576;50.460;4.866;2023-06-22T08:55:33;19.65;83.84
75899;DHT22;64576;50.460;4.866;2023-06-22T08:57:59;19.59;84.79
75899;DHT22;64576;50.460;4.866;2023-06-22T09:00:24;19.48;84.50
75899;DHT22;64576;50.460;4.866;2023-06-22T09:02:49;19.52;85.04
75899;DHT22;64576;50.460;4.866;2023-06-22T09:05:15;19.51;85.09
75899;DHT22;64576;50.460;4.866;2023-06-22T09:07:41;19.42;84.93
75899;DHT22;64576;50.460;4.866;2023-06-22T09:10:07;19.44;86.76
75899;DHT22;64576;50.460;4.866;2023-06-22T09:12:33;19.24;87.91
75899;DHT22;64576;50.460;4.866;2023-06-22T09:15:01;18.94;89.69
75899;DHT22;64576;50.460;4.866;2023-06-22T09:17:27;18.66;90.75
75899;DHT22;64576;50.460;4.866;2023-06-22T09:19:53;18.55;91.48
75899;DHT22;64576;50.460;4.866;2023-06-22T09:22:18;18.52;93.41
75899;DHT22;64576;50.460;4.866;2023-06-22T09:24:44;18.45;94.15
75899;DHT22;64576;50.460;4.866;2023-06-22T09:27:09;18.19;94.27
75899;DHT22;64576;50.460;4.866;2023-06-22T09:29:35;18.07;94.97
75899;DHT22;64576;50.460;4.866;2023-06-22T09:32:00;18.01;96.10
75899;DHT22;64576;50.460;4.866;2023-06-22T09:34:26;17.94;96.52
75899;DHT22;64576;50.460;4.866;2023-06-22T09:36:51;17.89;96.69
75899;DHT22;64576;50.460;4.866;2023-06-22T09:39:18;17.81;97.11
75899;DHT22;64576;50.460;4.866;2023-06-22T09:41:44;17.73;97.33
75899;DHT22;64576;50.460;4.866;2023-06-22T09:44:09;17.72;97.48
75899;DHT22;64576;50.460;4.866;2023-06-22T09:46:35;17.67;97.74
75899;DHT22;64576;50.460;4.866;2023-06-22T09:49:00;17.74;98.22
75899;DHT22;64576;50.460;4.866;2023-06-22T09:51:26;17.83;98.41
75899;DHT22;64576;50.460;4.866;2023-06-22T09:53:52;17.90;98.83
75899;DHT22;64576;50.460;4.866;2023-06-22T09:56:19;18.00;99.12
75899;DHT22;64576;50.460;4.866;2023-06-22T09:58:45;17.96;99.04
75899;DHT22;64576;50.460;4.866;2023-06-22T10:01:15;17.76;99.12
75899;DHT22;64576;50.460;4.866;2023-06-22T10:03:41;17.76;99.36
75899;DHT22;64576;50.460;4.866;2023-06-22T10:06:06;17.80;99.46
75899;DHT22;64576;50.460;4.866;2023-06-22T10:08:32;17.93;99.40
75899;DHT22;64576;50.460;4.866;2023-06-22T10:10:58;18.12;99.26
75899;DHT22;64576;50.460;4.866;2023-06-22T10:13:23;18.24;98.89
75899;DHT22;64576;50.460;4.866;2023-06-22T10:15:48;18.24;98.40
75899;DHT22;64576;50.460;4.866;2023-06-22T10:18:17;18.56;97.92
75899;DHT22;64576;50.460;4.866;2023-06-22T10:20:43;18.72;96.44
75899;DHT22;64576;50.460;4.866;2023-06-22T10:23:08;19.18;96.35
75899;DHT22;64576;50.460;4.866;2023-06-22T10:25:34;19.61;95.41
75899;DHT22;64576;50.460;4.866;2023-06-22T10:27:59;19.75;95.24
75899;DHT22;64576;50.460;4.866;2023-06-22T10:30:25;20.17;93.94
75899;DHT22;64576;50.460;4.866;2023-06-22T10:32:50;20.79;94.09
75899;DHT22;64576;50.460;4.866;2023-06-22T10:35:16;20.58;91.27
75899;DHT22;64576;50.460;4.866;2023-06-22T10:37:45;20.25;93.19
75899;DHT22;64576;50.460;4.866;2023-06-22T10:40:15;20.49;92.62
75899;DHT22;64576;50.460;4.866;2023-06-22T10:42:41;20.07;92.20
75899;DHT22;64576;50.460;4.866;2023-06-22T10:45:07;19.98;93.78
75899;DHT22;64576;50.460;4.866;2023-06-22T10:47:33;19.79;93.11
75899;DHT22;64576;50.460;4.866;2023-06-22T10:49:59;19.32;93.80
75899;DHT22;64576;50.460;4.866;2023-06-22T10:52:24;19.44;95.08
75899;DHT22;64576;50.460;4.866;2023-06-22T10:54:50;19.36;94.81
75899;DHT22;64576;50.460;4.866;2023-06-22T10:57:15;19.30;94.63
75899;DHT22;64576;50.460;4.866;2023-06-22T10:59:40;19.35;94.97
75899;DHT22;64576;50.460;4.866;2023-06-22T11:02:06;19.28;95.07
75899;DHT22;64576;50.460;4.866;2023-06-22T11:04:31;19.22;95.30
75899;DHT22;64576;50.460;4.866;2023-06-22T11:06:57;19.27;95.54
75899;DHT22;64576;50.460;4.866;2023-06-22T11:09:22;19.10;95.71
75899;DHT22;64576;50.460;4.866;2023-06-22T11:11:50;18.99;96.07
75899;DHT22;64576;50.460;4.866;2023-06-22T11:14:16;18.93;96.60
75899;DHT22;64576;50.460;4.866;2023-06-22T11:16:42;18.89;96.90
75899;DHT22;64576;50.460;4.866;2023-06-22T11:19:07;18.96;97.53
75899;DHT22;64576;50.460;4.866;2023-06-22T11:21:33;18.90;97.10
75899;DHT22;64576;50.460;4.866;2023-06-22T11:23:59;18.99;97.30
75899;DHT22;64576;50.460;4.866;2023-06-22T11:26:25;18.87;97.28
75899;DHT22;64576;50.460;4.866;2023-06-22T11:28:52;18.82;97.50
75899;DHT22;64576;50.460;4.866;2023-06-22T11:31:18;18.55;97.31
75899;DHT22;64576;50.460;4.866;2023-06-22T11:33:43;18.49;97.50
75899;DHT22;64576;50.460;4.866;2023-06-22T11:36:11;18.38;97.76
75899;DHT22;64576;50.460;4.866;2023-06-22T11:38:36;18.38;98.20
75899;DHT22;64576;50.460;4.866;2023-06-22T11:41:05;18.44;98.29
75899;DHT22;64576;50.460;4.866;2023-06-22T11:43:30;18.25;98.34
75899;DHT22;64576;50.460;4.866;2023-06-22T11:45:56;18.11;98.34
75899;DHT22;64576;50.460;4.866;2023-06-22T11:48:23;17.98;98.95
75899;DHT22;64576;50.460;4.866;2023-06-22T11:50:49;17.83;98.95
75899;DHT22;64576;50.460;4.866;2023-06-22T11:53:15;17.79;99.23
75899;DHT22;64576;50.460;4.866;2023-06-22T11:55:42;17.63;99.02
75899;DHT22;64576;50.460;4.866;2023-06-22T11:58:07;17.65;99.40
75899;DHT22;64576;50.460;4.866;2023-06-22T12:00:33;17.57;99.41
75899;DHT22;64576;50.460;4.866;2023-06-22T12:02:59;17.53;99.66
75899;DHT22;64576;50.460;4.866;2023-06-22T12:05:24;17.45;99.78
75899;DHT22;64576;50.460;4.866;2023-06-22T12:07:50;17.56;99.99
75899;DHT22;64576;50.460;4.866;2023-06-22T12:10:18;17.57;99.99
75899;DHT22;64576;50.460;4.866;2023-06-22T12:12:43;17.38;99.99
75899;DHT22;64576;50.460;4.866;2023-06-22T12:15:09;17.40;99.99
75899;DHT22;64576;50.460;4.866;2023-06-22T12:17:35;17.35;99.99
75899;DHT22;64576;50.460;4.866;2023-06-22T12:20:01;17.25;99.99
75899;DHT22;64576;50.460;4.866;2023-06-22T12:22:27;17.28;99.99
75899;DHT22;64576;50.460;4.866;2023-06-22T12:24:53;17.31;99.99
75899;DHT22;64576;50.460;4.866;2023-06-22T12:27:18;17.31;99.99
75899;DHT22;64576;50.460;4.866;2023-06-22T12:29:45;17.24;99.99
75899;DHT22;64576;50.460;4.866;2023-06-22T12:32:11;17.19;99.99
75899;DHT22;64576;50.460;4.866;2023-06-22T12:34:39;17.15;99.99
75899;DHT22;64576;50.460;4.866;2023-06-22T12:37:05;17.14;99.99
75899;DHT22;64576;50.460;4.866;2023-06-22T12:39:33;17.05;99.99
75899;DHT22;64576;50.460;4.866;2023-06-22T12:41:59;17.01;99.99
75899;DHT22;64576;50.460;4.866;2023-06-22T12:44:24;17.01;99.99
75899;DHT22;64576;50.460;4.866;2023-06-22T12:46:49;17.01;99.99
75899;DHT22;64576;50.460;4.866;2023-06-22T12:49:15;16.92;99.99
75899;DHT22;64576;50.460;4.866;2023-06-22T12:51:41;16.83;99.99
75899;DHT22;64576;50.460;4.866;2023-06-22T12:54:07;16.84;99.99
75899;DHT22;64576;50.460;4.866;2023-06-22T12:56:33;16.84;99.99
75899;DHT22;64576;50.460;4.866;2023-06-22T12:58:58;16.79;99.99
75899;DHT22;64576;50.460;4.866;2023-06-22T13:01:29;16.77;99.99
75899;DHT22;64576;50.460;4.866;2023-06-22T13:03:56;16.69;99.99
75899;DHT22;64576;50.460;4.866;2023-06-22T13:06:21;16.70;99.99
75899;DHT22;64576;50.460;4.866;2023-06-22T13:08:46;16.67;99.99
75899;DHT22;64576;50.460;4.866;2023-06-22T13:11:12;16.63;99.99
75899;DHT22;64576;50.460;4.866;2023-06-22T13:13:38;16.64;99.99
75899;DHT22;64576;50.460;4.866;2023-06-22T13:16:03;16.69;99.99
75899;DHT22;64576;50.460;4.866;2023-06-22T13:18:29;16.69;99.99
75899;DHT22;64576;50.460;4.866;2023-06-22T13:20:54;16.69;99.99
75899;DHT22;64576;50.460;4.866;2023-06-22T13:23:23;16.73;99.99
75899;DHT22;64576;50.460;4.866;2023-06-22T13:25:48;16.73;99.99
75899;DHT22;64576;50.460;4.866;2023-06-22T13:28:13;16.79;99.99
75899;DHT22;64576;50.460;4.866;2023-06-22T13:30:41;16.80;99.99
75899;DHT22;64576;50.460;4.866;2023-06-22T13:33:06;16.81;99.99
75899;DHT22;64576;50.460;4.866;2023-06-22T13:35:32;16.83;99.99
75899;DHT22;64576;50.460;4.866;2023-06-22T13:37:57;16.84;99.99
75899;DHT22;64576;50.460;4.866;2023-06-22T13:40:23;16.91;99.99
75899;DHT22;64576;50.460;4.866;2023-06-22T13:42:48;16.88;99.99
75899;DHT22;64576;50.460;4.866;2023-06-22T13:45:14;16.80;99.99
75899;DHT22;64576;50.460;4.866;2023-06-22T13:47:41;16.87;99.99
75899;DHT22;64576;50.460;4.866;2023-06-22T13:50:07;16.77;99.99
75899;DHT22;64576;50.460;4.866;2023-06-22T13:52:32;16.94;99.99
75899;DHT22;64576;50.460;4.866;2023-06-22T13:54:58;16.97;99.99
75899;DHT22;64576;50.460;4.866;2023-06-22T13:57:23;17.00;99.99
75899;DHT22;64576;50.460;4.866;2023-06-22T13:59:49;17.10;99.99
75899;DHT22;64576;50.460;4.866;2023-06-22T14:02:14;17.11;99.99
75899;DHT22;64576;50.460;4.866;2023-06-22T14:04:39;17.08;99.99
75899;DHT22;64576;50.460;4.866;2023-06-22T14:07:05;17.18;99.99
75899;DHT22;64576;50.460;4.866;2023-06-22T14:11:55;17.19;99.99
75899;DHT22;64576;50.460;4.866;2023-06-22T14:29:00;17.59;98.66
75899;DHT22;64576;50.460;4.866;2023-06-22T14:31:25;17.31;99.99
75899;DHT22;64576;50.460;4.866;2023-06-22T14:33:50;17.21;99.99
75899;DHT22;64576;50.460;4.866;2023-06-22T14:36:16;17.19;99.99
75899;DHT22;64576;50.460;4.866;2023-06-22T14:38:44;17.14;99.99
75899;DHT22;64576;50.460;4.866;2023-06-22T14:41:11;17.21;99.99
75899;DHT22;64576;50.460;4.866;2023-06-22T14:43:36;17.31;99.99
75899;DHT22;64576;50.460;4.866;2023-06-22T14:46:02;17.28;99.99
75899;DHT22;64576;50.460;4.866;2023-06-22T14:48:27;17.25;99.99
75899;DHT22;64576;50.460;4.866;2023-06-22T14:50:53;17.31;99.99
75899;DHT22;64576;50.460;4.866;2023-06-22T14:53:19;17.24;99.99
75899;DHT22;64576;50.460;4.866;2023-06-22T14:55:44;17.24;99.99
75899;DHT22;64576;50.460;4.866;2023-06-22T14:58:10;17.18;99.99
75899;DHT22;64576;50.460;4.866;2023-06-22T15:00:36;17.26;99.99
75899;DHT22;64576;50.460;4.866;2023-06-22T15:03:01;17.21;99.99
75899;DHT22;64576;50.460;4.866;2023-06-22T15:05:27;17.31;99.99
75899;DHT22;64576;50.460;4.866;2023-06-22T15:07:53;17.25;99.99
75899;DHT22;64576;50.460;4.866;2023-06-22T15:10:18;17.32;99.99
75899;DHT22;64576;50.460;4.866;2023-06-22T15:12:43;17.34;99.99
75899;DHT22;64576;50.460;4.866;2023-06-22T15:15:09;17.50;99.99
75899;DHT22;64576;50.460;4.866;2023-06-22T15:17:35;17.57;99.99
75899;DHT22;64576;50.460;4.866;2023-06-22T15:20:02;17.65;99.99
75899;DHT22;64576;50.460;4.866;2023-06-22T15:22:30;17.45;99.99
75899;DHT22;64576;50.460;4.866;2023-06-22T15:24:56;17.50;99.99
75899;DHT22;64576;50.460;4.866;2023-06-22T15:27:23;17.55;99.99
75899;DHT22;64576;50.460;4.866;2023-06-22T15:29:49;17.70;99.99
75899;DHT22;64576;50.460;4.866;2023-06-22T15:32:14;17.67;99.99
75899;DHT22;64576;50.460;4.866;2023-06-22T15:34:39;17.66;99.99
75899;DHT22;64576;50.460;4.866;2023-06-22T15:37:05;17.66;99.99
75899;DHT22;64576;50.460;4.866;2023-06-22T15:39:30;17.49;99.99
75899;DHT22;64576;50.460;4.866;2023-06-22T15:41:56;17.49;99.99
75899;DHT22;64576;50.460;4.866;2023-06-22T15:44:22;17.46;99.99
75899;DHT22;64576;50.460;4.866;2023-06-22T15:46:48;17.42;99.99
75899;DHT22;64576;50.460;4.866;2023-06-22T15:49:17;17.52;99.99
75899;DHT22;64576;50.460;4.866;2023-06-22T15:51:43;17.46;99.62